createdAt,value
2022-11-05T00:00:04.839Z,101496.75
2022-11-05T00:02:16.971Z,101497.13
2022-11-05T00:04:31.098Z,101495.19
2022-11-05T00:06:42.880Z,101485.91
2022-11-05T00:08:54.721Z,101489.88
2022-11-05T00:10:57.731Z,101479.47
2022-11-05T00:13:09.966Z,101478.59
2022-11-05T00:15:21.680Z,101478.56
2022-11-05T00:17:23.982Z,101475.00
2022-11-05T00:19:26.161Z,101468.94
2022-11-05T00:21:37.719Z,101474.28
2022-11-05T00:23:49.738Z,101482.28
2022-11-05T00:26:02.279Z,101480.53
2022-11-05T00:28:04.623Z,101475.75
2022-11-05T00:30:08.289Z,101484.28
2022-11-05T00:32:10.390Z,101485.72
2022-11-05T00:34:12.440Z,101487.72
2022-11-05T00:36:14.519Z,101488.31
2022-11-05T00:38:16.622Z,101494.47
2022-11-05T00:40:19.021Z,101488.34
2022-11-05T00:42:30.629Z,101488.56
2022-11-05T00:44:41.576Z,101492.16
2022-11-05T00:46:43.678Z,101499.38
2022-11-05T00:48:55.642Z,101496.00
2022-11-05T00:50:57.880Z,101489.81
2022-11-05T00:53:00.854Z,101488.22
2022-11-05T00:55:03.147Z,101493.25
2022-11-05T00:57:05.371Z,101497.75
2022-11-05T00:59:07.821Z,101494.28
2022-11-05T01:01:12.327Z,101501.91
2022-11-05T01:03:17.060Z,101503.53
2022-11-05T01:05:19.835Z,101509.56
2022-11-05T01:07:21.942Z,101494.25
2022-11-05T01:09:24.141Z,101493.47
2022-11-05T01:11:36.138Z,101492.59
2022-11-05T01:13:39.860Z,101486.63
2022-11-05T01:15:42.486Z,101483.03
2022-11-05T01:17:44.580Z,101483.66
2022-11-05T01:19:46.817Z,101489.53
2022-11-05T01:21:48.849Z,101494.72
2022-11-05T01:23:51.042Z,101491.16
2022-11-05T01:25:53.149Z,101487.84
2022-11-05T01:27:55.278Z,101485.63
2022-11-05T01:29:57.590Z,101491.81
2022-11-05T01:31:59.771Z,101492.56
2022-11-05T01:34:02.069Z,101486.91
2022-11-05T01:36:05.990Z,101484.91
2022-11-05T01:38:07.990Z,101475.63
2022-11-05T01:40:14.820Z,101473.19
2022-11-05T01:42:23.262Z,101475.50
2022-11-05T01:44:47.397Z,101470.72
2022-11-05T01:46:49.532Z,101481.00
2022-11-05T01:48:58.617Z,101479.16
2022-11-05T01:51:10.258Z,101478.44
2022-11-05T01:53:19.818Z,101473.28
2022-11-05T01:55:28.580Z,101467.50
2022-11-05T01:57:32.410Z,101472.06
2022-11-05T01:59:41.400Z,101472.13
2022-11-05T02:01:43.639Z,101473.19
2022-11-05T02:03:49.126Z,101474.88
2022-11-05T02:05:53.570Z,101478.13
2022-11-05T02:07:56.431Z,101480.59
2022-11-05T02:10:05.270Z,101481.88
2022-11-05T02:12:09.248Z,101474.19
2022-11-05T02:14:11.418Z,101475.16
2022-11-05T02:16:19.930Z,101463.38
2022-11-05T02:18:38.170Z,101466.78
2022-11-05T02:20:53.277Z,101460.22
2022-11-05T02:22:57.868Z,101454.03
2022-11-05T02:25:12.737Z,101454.34
2022-11-05T02:27:29.819Z,101459.22
2022-11-05T02:29:50.772Z,101449.59
2022-11-05T02:31:54.027Z,101447.09
2022-11-05T02:33:57.238Z,101445.34
2022-11-05T02:36:09.990Z,101454.34
2022-11-05T02:38:26.061Z,101448.13
2022-11-05T02:40:41.330Z,101448.72
2022-11-05T02:42:53.771Z,101455.81
2022-11-05T02:45:06.921Z,101449.31
2022-11-05T02:47:26.991Z,101453.78
2022-11-05T02:49:39.765Z,101448.59
2022-11-05T02:51:47.030Z,101461.69
2022-11-05T02:53:55.672Z,101460.56
2022-11-05T02:56:04.712Z,101464.88
2022-11-05T02:58:07.350Z,101465.66
2022-11-05T03:00:39.599Z,101466.53
2022-11-05T03:02:41.693Z,101468.28
2022-11-05T03:04:44.037Z,101473.41
2022-11-05T03:06:55.789Z,101473.81
2022-11-05T03:09:16.854Z,101466.19
2022-11-05T03:11:24.029Z,101465.59
2022-11-05T03:13:46.081Z,101458.19
2022-11-05T03:15:58.957Z,101458.31
2022-11-05T03:18:19.731Z,101455.81
2022-11-05T03:20:32.208Z,101451.53
2022-11-05T03:22:41.840Z,101447.16
2022-11-05T03:24:49.372Z,101446.06
2022-11-05T03:27:04.231Z,101443.31
2022-11-05T03:29:12.101Z,101446.06
2022-11-05T03:31:17.246Z,101441.22
2022-11-05T03:33:25.759Z,101441.28
2022-11-05T03:35:34.125Z,101436.91
2022-11-05T03:37:40.086Z,101435.34
2022-11-05T03:39:48.839Z,101426.72
2022-11-05T03:41:54.149Z,101431.69
2022-11-05T03:43:59.455Z,101429.53
2022-11-05T03:46:06.776Z,101427.63
2022-11-05T03:48:12.805Z,101422.63
2022-11-05T03:50:25.639Z,101423.53
2022-11-05T03:52:33.749Z,101423.94
2022-11-05T03:54:36.416Z,101424.59
2022-11-05T03:56:46.358Z,101420.88
2022-11-05T03:58:49.012Z,101412.63
2022-11-05T04:00:51.447Z,101408.53
2022-11-05T04:02:53.588Z,101410.16
2022-11-05T04:04:55.759Z,101414.63
2022-11-05T04:07:07.560Z,101417.97
2022-11-05T04:09:21.336Z,101414.63
2022-11-05T04:11:33.114Z,101411.38
2022-11-05T04:13:35.309Z,101405.47
2022-11-05T04:15:57.041Z,101407.69
2022-11-05T04:17:59.144Z,101412.22
2022-11-05T04:20:11.061Z,101423.59
2022-11-05T04:22:23.148Z,101416.81
2022-11-05T04:24:25.056Z,101416.00
2022-11-05T04:26:26.928Z,101423.69
2022-11-05T04:28:48.730Z,101418.22
2022-11-05T04:30:50.607Z,101424.91
2022-11-05T04:33:03.707Z,101432.44
2022-11-05T04:35:06.130Z,101430.94
2022-11-05T04:37:08.037Z,101427.78
2022-11-05T04:39:09.808Z,101443.19
2022-11-05T04:41:14.370Z,101437.97
2022-11-05T04:43:19.356Z,101440.53
2022-11-05T04:45:23.569Z,101435.69
2022-11-05T04:47:25.358Z,101437.44
2022-11-05T04:49:27.180Z,101438.25
2022-11-05T04:51:29.010Z,101439.31
2022-11-05T04:53:31.489Z,101431.47
2022-11-05T04:55:33.487Z,101424.81
2022-11-05T04:57:35.399Z,101425.78
2022-11-05T04:59:37.258Z,101422.41
2022-11-05T05:01:39.190Z,101425.78
2022-11-05T05:03:41.738Z,101414.53
2022-11-05T05:05:43.729Z,101414.44
2022-11-05T05:07:45.808Z,101411.25
2022-11-05T05:09:47.743Z,101412.13
2022-11-05T05:11:49.629Z,101414.00
2022-11-05T05:13:51.418Z,101401.31
2022-11-05T05:15:53.241Z,101411.19
2022-11-05T05:17:55.246Z,101402.75
2022-11-05T05:20:06.510Z,101399.56
2022-11-05T05:22:08.536Z,101400.47
2022-11-05T05:24:13.316Z,101396.94
2022-11-05T05:26:16.439Z,101402.06
2022-11-05T05:28:18.279Z,101397.91
2022-11-05T05:30:20.108Z,101401.25
2022-11-05T05:32:21.969Z,101396.09
2022-11-05T05:34:23.792Z,101402.66
2022-11-05T05:36:26.027Z,101393.50
2022-11-05T05:38:28.829Z,101389.38
2022-11-05T05:40:30.778Z,101388.44
2022-11-05T05:42:32.744Z,101392.66
2022-11-05T05:44:34.601Z,101388.41
2022-11-05T05:46:36.400Z,101392.84
2022-11-05T05:48:38.801Z,101395.56
2022-11-05T05:50:40.561Z,101388.53
2022-11-05T05:52:42.438Z,101393.78
2022-11-05T05:54:44.208Z,101391.34
2022-11-05T05:56:46.432Z,101386.94
2022-11-05T05:58:48.377Z,101393.78
2022-11-05T06:00:50.161Z,101387.53
2022-11-05T06:02:52.014Z,101374.50
2022-11-05T06:04:53.809Z,101375.56
2022-11-05T06:06:55.573Z,101378.16
2022-11-05T06:08:57.448Z,101378.13
2022-11-05T06:11:00.153Z,101383.91
2022-11-05T06:13:02.769Z,101380.00
2022-11-05T06:15:05.361Z,101382.59
2022-11-05T06:17:07.710Z,101380.97
2022-11-05T06:19:09.650Z,101386.94
2022-11-05T06:21:14.276Z,101380.28
2022-11-05T06:23:16.019Z,101385.44
2022-11-05T06:25:18.130Z,101387.16
2022-11-05T06:27:19.986Z,101381.34
2022-11-05T06:29:21.815Z,101373.50
2022-11-05T06:31:24.051Z,101369.22
2022-11-05T06:33:26.906Z,101366.81
2022-11-05T06:35:28.707Z,101371.09
2022-11-05T06:37:33.717Z,101372.31
2022-11-05T06:39:35.585Z,101375.81
2022-11-05T06:41:56.846Z,101368.09
2022-11-05T06:43:59.198Z,101368.94
2022-11-05T06:46:02.194Z,101368.16
2022-11-05T06:48:04.633Z,101371.56
2022-11-05T06:50:07.081Z,101371.63
2022-11-05T06:52:10.750Z,101364.84
2022-11-05T06:54:12.858Z,101369.03
2022-11-05T06:56:14.944Z,101369.97
2022-11-05T06:58:17.069Z,101367.63
2022-11-05T07:00:19.550Z,101363.28
2022-11-05T07:02:21.482Z,101359.34
2022-11-05T07:04:23.449Z,101364.41
2022-11-05T07:06:25.429Z,101362.78
2022-11-05T07:08:32.610Z,101372.38
2022-11-05T07:10:34.539Z,101371.47
2022-11-05T07:12:36.438Z,101367.28
2022-11-05T07:14:38.368Z,101370.69
2022-11-05T07:16:40.350Z,101375.81
2022-11-05T07:18:42.165Z,101369.03
2022-11-05T07:20:44.081Z,101369.03
2022-11-05T07:22:45.808Z,101366.50
2022-11-05T07:24:51.354Z,101365.63
2022-11-05T07:26:53.330Z,101362.00
2022-11-05T07:28:55.736Z,101354.50
2022-11-05T07:30:59.391Z,101352.66
2022-11-05T07:33:01.338Z,101354.63
2022-11-05T07:35:03.538Z,101352.75
2022-11-05T07:37:05.321Z,101358.00
2022-11-05T07:39:07.426Z,101340.81
2022-11-05T07:41:09.507Z,101346.09
2022-11-05T07:43:12.325Z,101346.75
2022-11-05T07:45:15.016Z,101351.97
2022-11-05T07:47:17.008Z,101353.69
2022-11-05T07:49:19.088Z,101355.25
2022-11-05T07:51:21.028Z,101356.19
2022-11-05T07:53:22.904Z,101357.13
2022-11-05T07:55:24.777Z,101358.91
2022-11-05T07:57:26.589Z,101357.28
2022-11-05T07:59:28.497Z,101362.50
2022-11-05T08:01:30.652Z,101364.25
2022-11-05T08:03:33.443Z,101367.78
2022-11-05T08:05:37.698Z,101361.94
2022-11-05T08:07:39.571Z,101369.94
2022-11-05T08:09:41.291Z,101369.19
2022-11-05T08:11:43.102Z,101367.50
2022-11-05T08:13:45.019Z,101370.09
2022-11-05T08:15:47.096Z,101371.19
2022-11-05T08:17:49.317Z,101375.34
2022-11-05T08:19:51.225Z,101369.34
2022-11-05T08:21:53.197Z,101373.69
2022-11-05T08:23:55.074Z,101365.00
2022-11-05T08:25:57.638Z,101363.28
2022-11-05T08:28:03.680Z,101367.66
2022-11-05T08:30:07.127Z,101368.53
2022-11-05T08:32:09.298Z,101365.91
2022-11-05T08:34:11.098Z,101364.41
2022-11-05T08:36:13.162Z,101367.00
2022-11-05T08:38:17.657Z,101358.34
2022-11-05T08:40:19.658Z,101361.56
2022-11-05T08:42:21.586Z,101363.38
2022-11-05T08:44:23.449Z,101356.69
2022-11-05T08:46:25.240Z,101360.09
2022-11-05T08:48:27.659Z,101359.22
2022-11-05T08:50:30.054Z,101354.19
2022-11-05T08:52:32.528Z,101357.47
2022-11-05T08:54:34.299Z,101352.53
2022-11-05T08:56:36.182Z,101354.41
2022-11-05T08:58:38.021Z,101353.47
2022-11-05T09:00:40.450Z,101358.72
2022-11-05T09:02:42.519Z,101352.78
2022-11-05T09:04:45.008Z,101343.00
2022-11-05T09:06:46.912Z,101349.41
2022-11-05T09:08:48.850Z,101343.50
2022-11-05T09:10:50.775Z,101337.31
2022-11-05T09:12:52.673Z,101342.41
2022-11-05T09:14:54.789Z,101345.69
2022-11-05T09:16:56.654Z,101351.75
2022-11-05T09:18:58.566Z,101337.16
2022-11-05T09:21:00.529Z,101326.34
2022-11-05T09:23:02.597Z,101328.25
2022-11-05T09:25:05.156Z,101322.06
2022-11-05T09:27:10.609Z,101320.94
2022-11-05T09:29:14.498Z,101322.59
2022-11-05T09:31:17.566Z,101317.00
2022-11-05T09:33:21.861Z,101327.47
2022-11-05T09:35:23.779Z,101325.81
2022-11-05T09:37:25.947Z,101321.47
2022-11-05T09:39:27.897Z,101317.84
2022-11-05T09:41:36.466Z,101310.34
2022-11-05T09:43:44.365Z,101307.75
2022-11-05T09:45:52.257Z,101300.88
2022-11-05T09:47:59.584Z,101300.22
2022-11-05T09:50:06.679Z,101301.19
2022-11-05T09:52:15.446Z,101306.16
2022-11-05T09:54:17.398Z,101297.59
2022-11-05T09:56:21.650Z,101301.00
2022-11-05T09:58:36.576Z,101297.88
2022-11-05T10:00:39.782Z,101295.22
2022-11-05T10:02:46.591Z,101291.81
2022-11-05T10:04:51.981Z,101292.69
2022-11-05T10:06:59.558Z,101292.72
2022-11-05T10:09:11.438Z,101292.03
2022-11-05T10:11:19.100Z,101288.66
2022-11-05T10:13:27.983Z,101294.56
2022-11-05T10:15:34.731Z,101292.97
2022-11-05T10:17:39.456Z,101297.31
2022-11-05T10:19:49.876Z,101286.03
2022-11-05T10:22:06.658Z,101275.19
2022-11-05T10:24:14.389Z,101274.34
2022-11-05T10:26:20.788Z,101276.88
2022-11-05T10:28:26.501Z,101263.78
2022-11-05T10:30:28.549Z,101256.13
2022-11-05T10:32:33.105Z,101258.22
2022-11-05T10:34:38.887Z,101259.19
2022-11-05T10:36:41.140Z,101261.97
2022-11-05T10:38:43.041Z,101261.84
2022-11-05T10:40:55.273Z,101249.13
2022-11-05T10:43:06.528Z,101254.03
2022-11-05T10:45:18.367Z,101247.16
2022-11-05T10:47:42.656Z,101232.69
2022-11-05T10:49:51.779Z,101234.41
2022-11-05T10:51:57.544Z,101233.72
2022-11-05T10:54:09.426Z,101224.38
2022-11-05T10:56:29.758Z,101225.38
2022-11-05T10:58:35.649Z,101227.06
2022-11-05T11:00:38.204Z,101230.66
2022-11-05T11:02:40.218Z,101218.66
2022-11-05T11:04:42.382Z,101215.38
2022-11-05T11:06:49.839Z,101220.72
2022-11-05T11:08:53.422Z,101213.16
2022-11-05T11:10:58.617Z,101210.47
2022-11-05T11:13:00.583Z,101198.63
2022-11-05T11:15:13.027Z,101193.66
2022-11-05T11:17:27.825Z,101188.47
2022-11-05T11:19:32.486Z,101183.50
2022-11-05T11:21:34.366Z,101181.09
2022-11-05T11:23:39.693Z,101184.59
2022-11-05T11:25:42.969Z,101178.44
2022-11-05T11:27:45.055Z,101175.94
2022-11-05T11:29:51.321Z,101179.56
2022-11-05T11:31:56.339Z,101171.97
2022-11-05T11:34:13.088Z,101183.19
2022-11-05T11:36:19.120Z,101179.75
2022-11-05T11:38:24.471Z,101177.19
2022-11-05T11:40:34.716Z,101176.47
2022-11-05T11:42:41.225Z,101180.63
2022-11-05T11:44:46.751Z,101173.00
2022-11-05T11:46:52.159Z,101169.56
2022-11-05T11:48:54.096Z,101180.78
2022-11-05T11:50:57.480Z,101172.16
2022-11-05T11:53:23.878Z,101169.66
2022-11-05T11:55:28.102Z,101175.66
2022-11-05T11:57:30.336Z,101171.38
2022-11-05T12:00:06.544Z,101166.22
2022-11-05T12:02:13.765Z,101165.25
2022-11-05T12:04:25.739Z,101169.72
2022-11-05T12:06:32.319Z,101159.41
2022-11-05T12:08:36.982Z,101160.31
2022-11-05T12:10:44.718Z,101167.19
2022-11-05T12:12:56.152Z,101160.34
2022-11-05T12:15:19.460Z,101144.78
2022-11-05T12:17:46.230Z,101137.09
2022-11-05T12:20:15.543Z,101136.94
2022-11-05T12:22:30.642Z,101137.06
2022-11-05T12:24:41.701Z,101144.78
2022-11-05T12:27:02.670Z,101133.63
2022-11-05T12:29:27.329Z,101119.81
2022-11-05T12:31:37.389Z,101113.78
2022-11-05T12:33:49.316Z,101117.22
2022-11-05T12:35:57.641Z,101117.28
2022-11-05T12:38:04.350Z,101110.25
2022-11-05T12:40:15.251Z,101107.59
2022-11-05T12:42:34.121Z,101099.94
2022-11-05T12:44:36.739Z,101096.56
2022-11-05T12:46:50.399Z,101088.03
2022-11-05T12:49:02.174Z,101074.38
2022-11-05T12:51:17.507Z,101077.75
2022-11-05T12:53:35.220Z,101061.53
2022-11-05T12:55:45.456Z,101062.38
2022-11-05T12:57:54.981Z,101056.22
2022-11-05T13:00:07.185Z,101053.75
2022-11-05T13:02:28.944Z,101049.41
2022-11-05T13:04:42.117Z,101038.97
2022-11-05T13:06:50.140Z,101035.47
2022-11-05T13:09:07.950Z,101039.03
2022-11-05T13:11:27.807Z,101043.44
2022-11-05T13:13:38.471Z,101054.81
2022-11-05T13:15:48.401Z,101046.03
2022-11-05T13:17:55.893Z,101037.50
2022-11-05T13:20:17.309Z,101038.31
2022-11-05T13:22:28.114Z,101040.94
2022-11-05T13:24:39.321Z,101037.56
2022-11-05T13:26:51.617Z,101035.75
2022-11-05T13:28:58.240Z,101036.69
2022-11-05T13:31:03.729Z,101028.13
2022-11-05T13:33:16.907Z,101028.19
2022-11-05T13:35:26.538Z,101016.06
2022-11-05T13:37:41.486Z,101020.22
2022-11-05T13:39:56.217Z,101010.09
2022-11-05T13:42:17.733Z,101019.50
2022-11-05T13:44:38.728Z,101016.16
2022-11-05T13:46:57.024Z,101022.81
2022-11-05T13:49:08.184Z,101013.41
2022-11-05T13:51:11.454Z,101004.84
2022-11-05T13:53:32.745Z,100987.72
2022-11-05T13:55:53.762Z,100992.91
2022-11-05T13:58:05.828Z,100994.53
2022-11-05T14:00:22.860Z,100988.50
2022-11-05T14:02:29.338Z,100986.66
2022-11-05T14:04:39.448Z,100991.84
2022-11-05T14:06:42.598Z,100979.06
2022-11-05T14:08:46.779Z,100984.09
2022-11-05T14:11:01.201Z,100971.28
2022-11-05T14:13:19.934Z,100961.91
2022-11-05T14:15:23.629Z,100958.56
2022-11-05T14:17:31.495Z,100960.22
2022-11-05T14:20:05.943Z,100952.41
2022-11-05T14:22:26.784Z,100957.66
2022-11-05T14:24:38.155Z,100951.56
2022-11-05T14:26:40.142Z,100951.56
2022-11-05T14:28:45.538Z,100940.31
2022-11-05T14:30:48.218Z,100952.38
2022-11-05T14:32:51.240Z,100961.03
2022-11-05T14:34:56.100Z,100959.31
2022-11-05T14:37:11.114Z,100968.00
2022-11-05T14:39:17.570Z,100957.66
2022-11-05T14:41:22.046Z,100959.38
2022-11-05T14:43:27.131Z,100957.56
2022-11-05T14:45:35.333Z,100953.38
2022-11-05T14:47:42.143Z,100961.09
2022-11-05T14:49:54.766Z,100958.69
2022-11-05T14:52:00.549Z,100941.50
2022-11-05T14:54:07.620Z,100936.34
2022-11-05T14:56:12.823Z,100940.66
2022-11-05T14:58:29.998Z,100944.13
2022-11-05T15:00:34.361Z,100926.97
2022-11-05T15:02:41.119Z,100932.03
2022-11-05T15:04:45.723Z,100937.22
2022-11-05T15:07:04.110Z,100925.91
2022-11-05T15:09:15.789Z,100924.31
2022-11-05T15:11:22.329Z,100932.03
2022-11-05T15:13:33.996Z,100920.97
2022-11-05T15:15:43.901Z,100917.53
2022-11-05T15:17:58.397Z,100914.09
2022-11-05T15:20:09.106Z,100916.78
2022-11-05T15:22:22.237Z,100920.25
2022-11-05T15:24:28.386Z,100915.06
2022-11-05T15:26:31.999Z,100924.63
2022-11-05T15:28:44.673Z,100913.28
2022-11-05T15:31:16.247Z,100914.94
2022-11-05T15:33:21.115Z,100914.13
2022-11-05T15:35:30.069Z,100912.22
2022-11-05T15:37:32.394Z,100917.59
2022-11-05T15:39:40.489Z,100920.13
2022-11-05T15:41:43.690Z,100916.72
2022-11-05T15:43:48.177Z,100924.53
2022-11-05T15:46:03.522Z,100917.63
2022-11-05T15:48:14.460Z,100914.13
2022-11-05T15:50:18.762Z,100912.50
2022-11-05T15:52:23.643Z,100906.47
2022-11-05T15:54:30.384Z,100916.09
2022-11-05T15:56:37.744Z,100907.50
2022-11-05T15:58:47.899Z,100911.72
2022-11-05T16:00:49.942Z,100910.09
2022-11-05T16:02:57.726Z,100916.13
2022-11-05T16:05:01.790Z,100902.44
2022-11-05T16:07:10.362Z,100896.44
2022-11-05T16:09:28.935Z,100905.78
2022-11-05T16:11:31.272Z,100901.59
2022-11-05T16:13:38.063Z,100898.06
2022-11-05T16:15:40.236Z,100904.94
2022-11-05T16:17:49.170Z,100901.50
2022-11-05T16:19:52.504Z,100892.91
2022-11-05T16:21:55.285Z,100896.44
2022-11-05T16:24:00.189Z,100890.41
2022-11-05T16:26:02.290Z,100883.41
2022-11-05T16:28:07.393Z,100886.84
2022-11-05T16:30:18.557Z,100879.03
2022-11-05T16:32:31.432Z,100882.50
2022-11-05T16:34:48.295Z,100879.03
2022-11-05T16:36:50.190Z,100874.78
2022-11-05T16:38:52.196Z,100863.59
2022-11-05T16:40:54.182Z,100880.81
2022-11-05T16:43:12.849Z,100879.16
2022-11-05T16:45:17.569Z,100871.31
2022-11-05T16:47:20.458Z,100879.09
2022-11-05T16:49:22.396Z,100870.47
2022-11-05T16:51:27.372Z,100872.19
2022-11-05T16:53:29.694Z,100879.19
2022-11-05T16:55:33.903Z,100879.19
2022-11-05T16:57:36.635Z,100879.09
2022-11-05T16:59:38.791Z,100877.44
2022-11-05T17:01:42.845Z,100871.28
2022-11-05T17:03:45.712Z,100870.53
2022-11-05T17:05:48.040Z,100888.56
2022-11-05T17:07:50.738Z,100871.31
2022-11-05T17:09:52.780Z,100887.59
2022-11-05T17:11:54.744Z,100875.59
2022-11-05T17:13:56.891Z,100873.91
2022-11-05T17:15:59.628Z,100879.09
2022-11-05T17:18:02.543Z,100891.94
2022-11-05T17:20:05.240Z,100882.47
2022-11-05T17:22:07.303Z,100878.19
2022-11-05T17:24:09.561Z,100882.50
2022-11-05T17:26:13.511Z,100876.56
2022-11-05T17:28:17.007Z,100880.81
2022-11-05T17:30:20.357Z,100883.41
2022-11-05T17:32:22.463Z,100889.56
2022-11-05T17:34:24.457Z,100875.53
2022-11-05T17:36:26.828Z,100883.41
2022-11-05T17:38:28.917Z,100888.47
2022-11-05T17:40:31.000Z,100873.03
2022-11-05T17:42:33.063Z,100876.47
2022-11-05T17:44:35.087Z,100873.06
2022-11-05T17:46:37.074Z,100884.34
2022-11-05T17:48:40.171Z,100868.72
2022-11-05T17:50:43.690Z,100874.75
2022-11-05T17:52:45.957Z,100867.09
2022-11-05T17:54:47.939Z,100873.13
2022-11-05T17:56:49.843Z,100861.94
2022-11-05T17:58:51.746Z,100868.84
2022-11-05T18:00:54.408Z,100872.94
2022-11-05T18:02:56.591Z,100869.59
2022-11-05T18:04:58.917Z,100858.47
2022-11-05T18:07:00.953Z,100861.97
2022-11-05T18:09:03.812Z,100867.13
2022-11-05T18:11:06.110Z,100863.75
2022-11-05T18:13:08.064Z,100858.53
2022-11-05T18:15:10.736Z,100870.53
2022-11-05T18:17:14.267Z,100853.38
2022-11-05T18:19:17.976Z,100857.75
2022-11-05T18:21:20.067Z,100869.84
2022-11-05T18:23:21.978Z,100864.78
2022-11-05T18:25:24.497Z,100864.63
2022-11-05T18:27:27.855Z,100851.75
2022-11-05T18:29:32.819Z,100850.84
2022-11-05T18:31:34.900Z,100845.59
2022-11-05T18:33:36.974Z,100852.59
2022-11-05T18:35:42.431Z,100850.84
2022-11-05T18:37:44.495Z,100848.28
2022-11-05T18:39:46.850Z,100844.00
2022-11-05T18:41:48.949Z,100841.41
2022-11-05T18:43:51.596Z,100839.66
2022-11-05T18:45:56.906Z,100842.31
2022-11-05T18:48:00.761Z,100836.31
2022-11-05T18:50:03.659Z,100836.31
2022-11-05T18:52:05.984Z,100846.69
2022-11-05T18:54:08.876Z,100834.50
2022-11-05T18:56:13.381Z,100844.94
2022-11-05T18:58:15.423Z,100831.16
2022-11-05T19:00:17.612Z,100834.59
2022-11-05T19:02:20.011Z,100839.59
2022-11-05T19:04:23.181Z,100849.13
2022-11-05T19:06:25.719Z,100835.44
2022-11-05T19:08:28.629Z,100844.84
2022-11-05T19:10:30.859Z,100838.91
2022-11-05T19:12:32.903Z,100832.88
2022-11-05T19:14:36.059Z,100837.19
2022-11-05T19:16:38.088Z,100832.88
2022-11-05T19:18:41.414Z,100838.94
2022-11-05T19:20:43.550Z,100836.34
2022-11-05T19:22:45.712Z,100847.53
2022-11-05T19:24:47.741Z,100831.16
2022-11-05T19:26:50.560Z,100825.19
2022-11-05T19:28:52.975Z,100830.47
2022-11-05T19:30:54.926Z,100821.69
2022-11-05T19:32:57.687Z,100820.94
2022-11-05T19:34:59.735Z,100822.72
2022-11-05T19:37:02.007Z,100818.41
2022-11-05T19:39:09.056Z,100822.66
2022-11-05T19:41:14.738Z,100822.66
2022-11-05T19:43:16.788Z,100821.78
2022-11-05T19:45:45.729Z,100820.06
2022-11-05T19:47:43.076Z,100814.00
2022-11-05T19:49:45.186Z,100819.19
2022-11-05T19:51:47.351Z,100815.81
2022-11-05T19:53:51.629Z,100815.81
2022-11-05T19:55:53.869Z,100826.16
2022-11-05T19:57:55.971Z,100823.59
2022-11-05T19:59:57.994Z,100820.16
2022-11-05T20:02:00.383Z,100816.78
2022-11-05T20:04:03.574Z,100807.22
2022-11-05T20:06:09.152Z,100811.59
2022-11-05T20:08:11.699Z,100824.47
2022-11-05T20:10:14.045Z,100821.00
2022-11-05T20:12:16.014Z,100821.00
2022-11-05T20:14:18.135Z,100802.03
2022-11-05T20:16:22.864Z,100804.63
2022-11-05T20:18:25.403Z,100813.22
2022-11-05T20:20:27.496Z,100812.38
2022-11-05T20:22:29.478Z,100810.72
2022-11-05T20:24:31.520Z,100807.28
2022-11-05T20:26:34.160Z,100817.63
2022-11-05T20:28:38.038Z,100807.22
2022-11-05T20:30:40.375Z,100809.00
2022-11-05T20:32:43.533Z,100799.53
2022-11-05T20:34:45.606Z,100801.19
2022-11-05T20:36:47.773Z,100808.94
2022-11-05T20:38:51.653Z,100795.19
2022-11-05T20:40:54.379Z,100799.53
2022-11-05T20:42:56.483Z,100789.13
2022-11-05T20:45:00.835Z,100794.34
2022-11-05T20:47:03.233Z,100802.09
2022-11-05T20:49:05.681Z,100802.09
2022-11-05T20:51:11.881Z,100797.00
2022-11-05T20:53:14.055Z,100794.44
2022-11-05T20:55:16.503Z,100791.00
2022-11-05T20:57:18.805Z,100799.59
2022-11-05T20:59:20.981Z,100805.66
2022-11-05T21:01:24.254Z,100802.19
2022-11-05T21:03:27.553Z,100801.34
2022-11-05T21:05:35.138Z,100806.47
2022-11-05T21:07:38.019Z,100801.28
2022-11-05T21:09:40.005Z,100794.44
2022-11-05T21:12:02.187Z,100803.03
2022-11-05T21:14:04.225Z,100793.50
2022-11-05T21:16:08.084Z,100794.44
2022-11-05T21:18:10.205Z,100807.31
2022-11-05T21:20:12.962Z,100809.00
2022-11-05T21:22:16.239Z,100802.16
2022-11-05T21:24:18.295Z,100806.50
2022-11-05T21:26:20.449Z,100806.53
2022-11-05T21:28:22.596Z,100795.28
2022-11-05T21:30:24.760Z,100798.78
2022-11-05T21:32:26.723Z,100797.84
2022-11-05T21:34:30.690Z,100789.28
2022-11-05T21:36:32.876Z,100793.56
2022-11-05T21:38:35.194Z,100797.09
2022-11-05T21:40:37.612Z,100797.09
2022-11-05T21:42:39.963Z,100800.47
2022-11-05T21:44:42.363Z,100799.63
2022-11-05T21:46:45.490Z,100787.63
2022-11-05T21:48:47.952Z,100791.00
2022-11-05T21:51:01.744Z,100788.38
2022-11-05T21:53:13.629Z,100773.81
2022-11-05T21:55:25.562Z,100784.22
2022-11-05T21:57:36.529Z,100794.53
2022-11-05T21:59:47.736Z,100784.19
2022-11-05T22:01:50.241Z,100782.44
2022-11-05T22:03:52.879Z,100784.16
2022-11-05T22:05:57.078Z,100791.94
2022-11-05T22:07:59.091Z,100792.72
2022-11-05T22:10:01.961Z,100799.63
2022-11-05T22:12:04.885Z,100782.47
2022-11-05T22:14:07.438Z,100786.81
2022-11-05T22:16:09.433Z,100779.84
2022-11-05T22:18:11.670Z,100786.75
2022-11-05T22:20:14.102Z,100783.38
2022-11-05T22:22:16.279Z,100784.25
2022-11-05T22:24:21.179Z,100769.56
2022-11-05T22:26:23.588Z,100762.66
2022-11-05T22:28:25.986Z,100756.63
2022-11-05T22:30:28.056Z,100755.78
2022-11-05T22:32:30.024Z,100760.09
2022-11-05T22:34:31.976Z,100743.72
2022-11-05T22:36:35.439Z,100738.56
2022-11-05T22:38:37.647Z,100749.72
2022-11-05T22:40:39.566Z,100747.19
2022-11-05T22:42:42.976Z,100742.00
2022-11-05T22:44:45.027Z,100737.69
2022-11-05T22:46:47.166Z,100728.19
2022-11-05T22:48:49.939Z,100725.63
2022-11-05T22:50:51.767Z,100736.78
2022-11-05T22:52:54.711Z,100719.53
2022-11-05T22:54:56.603Z,100719.56
2022-11-05T22:56:58.633Z,100720.44
2022-11-05T22:59:00.634Z,100723.03
2022-11-05T23:01:03.970Z,100714.47
2022-11-05T23:03:05.999Z,100714.44
2022-11-05T23:05:08.860Z,100717.03
2022-11-05T23:07:26.138Z,100720.44
2022-11-05T23:09:43.753Z,100718.78
2022-11-05T23:11:49.538Z,100717.94
2022-11-05T23:13:51.616Z,100720.53
2022-11-05T23:16:03.704Z,100713.63
2022-11-05T23:18:15.806Z,100712.75
2022-11-05T23:20:31.749Z,100717.13
2022-11-05T23:22:43.757Z,100719.66
2022-11-05T23:24:47.191Z,100711.94
2022-11-05T23:26:50.268Z,100712.75
2022-11-05T23:28:52.209Z,100705.00
2022-11-05T23:31:03.677Z,100704.13
2022-11-05T23:33:05.661Z,100703.28
2022-11-05T23:35:08.857Z,100697.25
2022-11-05T23:37:20.590Z,100705.03
2022-11-05T23:39:22.581Z,100707.63
2022-11-05T23:41:33.751Z,100704.16
2022-11-05T23:43:45.668Z,100705.84
2022-11-05T23:45:57.640Z,100704.16
2022-11-05T23:48:17.644Z,100692.09
2022-11-05T23:50:21.038Z,100696.41
2022-11-05T23:52:23.059Z,100689.47
2022-11-05T23:54:24.995Z,100685.19
2022-11-05T23:56:26.839Z,100690.34